sensor_id;sensor_type;location;lat;lon;timestamp;P1;durP1;ratioP1;P2;durP2;ratioP2
8893;SDS011;4483;48.622;9.230;2023-08-17T00:01:06;4.07;;;2.28;;
8893;SDS011;4483;48.622;9.230;2023-08-17T00:03:33;6.00;;;2.03;;
8893;SDS011;4483;48.622;9.230;2023-08-17T00:05:59;3.53;;;2.38;;
8893;SDS011;4483;48.622;9.230;2023-08-17T00:08:26;2.13;;;1.90;;
8893;SDS011;4483;48.622;9.230;2023-08-17T00:10:52;2.70;;;2.00;;
8893;SDS011;4483;48.622;9.230;2023-08-17T00:13:19;2.38;;;2.17;;
8893;SDS011;4483;48.622;9.230;2023-08-17T00:15:47;2.10;;;2.00;;
8893;SDS011;4483;48.622;9.230;2023-08-17T00:18:13;4.32;;;2.13;;
8893;SDS011;4483;48.622;9.230;2023-08-17T00:20:40;3.42;;;1.90;;
8893;SDS011;4483;48.622;9.230;2023-08-17T00:23:07;2.30;;;2.03;;
8893;SDS011;4483;48.622;9.230;2023-08-17T00:25:33;4.30;;;2.10;;
8893;SDS011;4483;48.622;9.230;2023-08-17T00:28:00;6.38;;;1.98;;
8893;SDS011;4483;48.622;9.230;2023-08-17T00:30:27;3.90;;;2.00;;
8893;SDS011;4483;48.622;9.230;2023-08-17T00:32:55;3.05;;;2.20;;
8893;SDS011;4483;48.622;9.230;2023-08-17T00:35:21;2.42;;;2.22;;
8893;SDS011;4483;48.622;9.230;2023-08-17T00:37:48;3.63;;;1.85;;
8893;SDS011;4483;48.622;9.230;2023-08-17T00:40:14;2.30;;;2.10;;
8893;SDS011;4483;48.622;9.230;2023-08-17T00:42:41;2.20;;;1.85;;
8893;SDS011;4483;48.622;9.230;2023-08-17T00:45:08;1.88;;;1.83;;
8893;SDS011;4483;48.622;9.230;2023-08-17T00:47:35;2.00;;;1.88;;
8893;SDS011;4483;48.622;9.230;2023-08-17T00:50:03;2.88;;;1.98;;
8893;SDS011;4483;48.622;9.230;2023-08-17T00:52:31;1.80;;;1.70;;
8893;SDS011;4483;48.622;9.230;2023-08-17T00:54:59;3.47;;;1.90;;
8893;SDS011;4483;48.622;9.230;2023-08-17T00:57:27;4.03;;;2.00;;
8893;SDS011;4483;48.622;9.230;2023-08-17T00:59:54;2.40;;;2.20;;
8893;SDS011;4483;48.622;9.230;2023-08-17T01:02:21;3.40;;;2.20;;
8893;SDS011;4483;48.622;9.230;2023-08-17T01:04:47;2.00;;;1.90;;
8893;SDS011;4483;48.622;9.230;2023-08-17T01:07:15;3.00;;;2.05;;
8893;SDS011;4483;48.622;9.230;2023-08-17T01:09:42;3.00;;;2.05;;
8893;SDS011;4483;48.622;9.230;2023-08-17T01:12:11;6.75;;;2.00;;
8893;SDS011;4483;48.622;9.230;2023-08-17T01:14:46;2.53;;;2.00;;
8893;SDS011;4483;48.622;9.230;2023-08-17T01:17:22;1.92;;;1.83;;
8893;SDS011;4483;48.622;9.230;2023-08-17T01:19:53;2.67;;;1.70;;
8893;SDS011;4483;48.622;9.230;2023-08-17T01:22:22;4.18;;;1.90;;
8893;SDS011;4483;48.622;9.230;2023-08-17T01:24:54;1.92;;;1.83;;
8893;SDS011;4483;48.622;9.230;2023-08-17T01:27:22;2.72;;;1.73;;
8893;SDS011;4483;48.622;9.230;2023-08-17T01:29:49;2.40;;;1.70;;
8893;SDS011;4483;48.622;9.230;2023-08-17T01:32:17;1.90;;;1.80;;
8893;SDS011;4483;48.622;9.230;2023-08-17T01:34:50;1.92;;;1.70;;
8893;SDS011;4483;48.622;9.230;2023-08-17T01:37:23;3.28;;;1.90;;
8893;SDS011;4483;48.622;9.230;2023-08-17T01:39:55;2.05;;;1.80;;
8893;SDS011;4483;48.622;9.230;2023-08-17T01:42:24;2.05;;;1.77;;
8893;SDS011;4483;48.622;9.230;2023-08-17T01:44:51;4.38;;;1.63;;
8893;SDS011;4483;48.622;9.230;2023-08-17T01:47:20;1.80;;;1.70;;
8893;SDS011;4483;48.622;9.230;2023-08-17T01:49:46;1.98;;;1.77;;
8893;SDS011;4483;48.622;9.230;2023-08-17T01:52:13;3.72;;;1.52;;
8893;SDS011;4483;48.622;9.230;2023-08-17T01:54:40;3.33;;;2.15;;
8893;SDS011;4483;48.622;9.230;2023-08-17T01:57:08;3.22;;;1.80;;
8893;SDS011;4483;48.622;9.230;2023-08-17T01:59:35;2.47;;;1.80;;
8893;SDS011;4483;48.622;9.230;2023-08-17T02:02:01;2.05;;;1.65;;
8893;SDS011;4483;48.622;9.230;2023-08-17T02:04:28;1.88;;;1.70;;
8893;SDS011;4483;48.622;9.230;2023-08-17T02:06:54;1.70;;;1.67;;
8893;SDS011;4483;48.622;9.230;2023-08-17T02:09:21;1.92;;;1.80;;
8893;SDS011;4483;48.622;9.230;2023-08-17T02:11:48;3.70;;;1.88;;
8893;SDS011;4483;48.622;9.230;2023-08-17T02:14:15;1.60;;;1.50;;
8893;SDS011;4483;48.622;9.230;2023-08-17T02:16:42;1.85;;;1.75;;
8893;SDS011;4483;48.622;9.230;2023-08-17T02:19:09;1.55;;;1.45;;
8893;SDS011;4483;48.622;9.230;2023-08-17T02:21:35;2.95;;;1.90;;
8893;SDS011;4483;48.622;9.230;2023-08-17T02:24:02;6.90;;;1.60;;
8893;SDS011;4483;48.622;9.230;2023-08-17T02:26:29;1.88;;;1.60;;
8893;SDS011;4483;48.622;9.230;2023-08-17T02:28:56;2.05;;;1.95;;
8893;SDS011;4483;48.622;9.230;2023-08-17T02:31:24;4.13;;;1.70;;
8893;SDS011;4483;48.622;9.230;2023-08-17T02:33:50;1.60;;;1.50;;
8893;SDS011;4483;48.622;9.230;2023-08-17T02:36:17;1.50;;;1.50;;
8893;SDS011;4483;48.622;9.230;2023-08-17T02:38:43;3.42;;;1.70;;
8893;SDS011;4483;48.622;9.230;2023-08-17T02:41:10;1.70;;;1.60;;
8893;SDS011;4483;48.622;9.230;2023-08-17T02:43:37;2.90;;;1.48;;
8893;SDS011;4483;48.622;9.230;2023-08-17T02:46:03;2.35;;;1.70;;
8893;SDS011;4483;48.622;9.230;2023-08-17T02:48:33;1.67;;;1.63;;
8893;SDS011;4483;48.622;9.230;2023-08-17T02:51:00;2.30;;;1.73;;
8893;SDS011;4483;48.622;9.230;2023-08-17T02:53:26;4.85;;;1.90;;
8893;SDS011;4483;48.622;9.230;2023-08-17T02:55:53;1.60;;;1.50;;
8893;SDS011;4483;48.622;9.230;2023-08-17T02:58:20;1.65;;;1.60;;
8893;SDS011;4483;48.622;9.230;2023-08-17T03:00:46;3.10;;;1.45;;
8893;SDS011;4483;48.622;9.230;2023-08-17T03:03:13;2.42;;;1.92;;
8893;SDS011;4483;48.622;9.230;2023-08-17T03:05:41;1.77;;;1.67;;
8893;SDS011;4483;48.622;9.230;2023-08-17T03:08:07;2.90;;;1.60;;
8893;SDS011;4483;48.622;9.230;2023-08-17T03:10:34;2.60;;;1.70;;
8893;SDS011;4483;48.622;9.230;2023-08-17T03:13:01;1.75;;;1.65;;
8893;SDS011;4483;48.622;9.230;2023-08-17T03:15:27;2.88;;;1.45;;
8893;SDS011;4483;48.622;9.230;2023-08-17T03:17:54;3.75;;;1.60;;
8893;SDS011;4483;48.622;9.230;2023-08-17T03:20:21;3.35;;;2.00;;
8893;SDS011;4483;48.622;9.230;2023-08-17T03:22:49;2.03;;;1.77;;
8893;SDS011;4483;48.622;9.230;2023-08-17T03:25:15;2.35;;;1.60;;
8893;SDS011;4483;48.622;9.230;2023-08-17T03:27:43;1.83;;;1.73;;
8893;SDS011;4483;48.622;9.230;2023-08-17T03:30:10;3.83;;;1.80;;
8893;SDS011;4483;48.622;9.230;2023-08-17T03:32:37;3.60;;;1.60;;
8893;SDS011;4483;48.622;9.230;2023-08-17T03:35:04;2.03;;;1.80;;
8893;SDS011;4483;48.622;9.230;2023-08-17T03:37:31;6.25;;;1.80;;
8893;SDS011;4483;48.622;9.230;2023-08-17T03:39:59;3.30;;;1.80;;
8893;SDS011;4483;48.622;9.230;2023-08-17T03:42:25;4.60;;;1.95;;
8893;SDS011;4483;48.622;9.230;2023-08-17T03:44:52;1.85;;;1.60;;
8893;SDS011;4483;48.622;9.230;2023-08-17T03:47:19;2.15;;;1.90;;
8893;SDS011;4483;48.622;9.230;2023-08-17T03:49:46;3.47;;;2.28;;
8893;SDS011;4483;48.622;9.230;2023-08-17T03:52:12;2.65;;;2.28;;
8893;SDS011;4483;48.622;9.230;2023-08-17T03:54:39;3.28;;;2.35;;
8893;SDS011;4483;48.622;9.230;2023-08-17T03:57:07;4.40;;;2.45;;
8893;SDS011;4483;48.622;9.230;2023-08-17T03:59:33;3.25;;;2.28;;
8893;SDS011;4483;48.622;9.230;2023-08-17T04:02:00;6.88;;;2.92;;
8893;SDS011;4483;48.622;9.230;2023-08-17T04:04:27;2.80;;;2.60;;
8893;SDS011;4483;48.622;9.230;2023-08-17T04:06:53;4.93;;;2.67;;
8893;SDS011;4483;48.622;9.230;2023-08-17T04:09:20;3.40;;;2.85;;
8893;SDS011;4483;48.622;9.230;2023-08-17T04:11:46;3.03;;;2.58;;
8893;SDS011;4483;48.622;9.230;2023-08-17T04:14:14;3.90;;;2.78;;
8893;SDS011;4483;48.622;9.230;2023-08-17T04:16:41;4.72;;;2.30;;
8893;SDS011;4483;48.622;9.230;2023-08-17T04:19:08;3.13;;;2.50;;
8893;SDS011;4483;48.622;9.230;2023-08-17T04:21:34;3.35;;;2.35;;
8893;SDS011;4483;48.622;9.230;2023-08-17T04:24:01;2.78;;;2.58;;
8893;SDS011;4483;48.622;9.230;2023-08-17T04:26:28;3.38;;;2.67;;
8893;SDS011;4483;48.622;9.230;2023-08-17T04:28:54;2.83;;;2.63;;
8893;SDS011;4483;48.622;9.230;2023-08-17T04:31:22;7.50;;;3.45;;
8893;SDS011;4483;48.622;9.230;2023-08-17T04:33:49;4.13;;;2.47;;
8893;SDS011;4483;48.622;9.230;2023-08-17T04:36:16;3.33;;;2.63;;
8893;SDS011;4483;48.622;9.230;2023-08-17T04:38:43;3.22;;;2.95;;
8893;SDS011;4483;48.622;9.230;2023-08-17T04:41:09;6.05;;;2.55;;
8893;SDS011;4483;48.622;9.230;2023-08-17T04:43:36;5.57;;;2.70;;
8893;SDS011;4483;48.622;9.230;2023-08-17T04:46:03;3.67;;;2.72;;
8893;SDS011;4483;48.622;9.230;2023-08-17T04:48:31;3.53;;;2.97;;
8893;SDS011;4483;48.622;9.230;2023-08-17T04:50:57;7.53;;;4.88;;
8893;SDS011;4483;48.622;9.230;2023-08-17T04:53:24;10.35;;;5.68;;
8893;SDS011;4483;48.622;9.230;2023-08-17T04:55:50;8.88;;;5.85;;
8893;SDS011;4483;48.622;9.230;2023-08-17T04:58:17;12.95;;;6.10;;
8893;SDS011;4483;48.622;9.230;2023-08-17T05:00:44;7.82;;;5.90;;
8893;SDS011;4483;48.622;9.230;2023-08-17T05:03:10;15.43;;;6.53;;
8893;SDS011;4483;48.622;9.230;2023-08-17T05:05:38;10.55;;;6.20;;
8893;SDS011;4483;48.622;9.230;2023-08-17T05:08:05;12.55;;;6.63;;
8893;SDS011;4483;48.622;9.230;2023-08-17T05:10:31;13.35;;;6.93;;
8893;SDS011;4483;48.622;9.230;2023-08-17T05:12:58;12.52;;;6.80;;
8893;SDS011;4483;48.622;9.230;2023-08-17T05:15:25;19.08;;;6.80;;
8893;SDS011;4483;48.622;9.230;2023-08-17T05:17:52;14.90;;;7.85;;
8893;SDS011;4483;48.622;9.230;2023-08-17T05:20:18;16.23;;;7.22;;
8893;SDS011;4483;48.622;9.230;2023-08-17T05:22:47;11.93;;;7.57;;
8893;SDS011;4483;48.622;9.230;2023-08-17T05:25:13;12.30;;;7.15;;
8893;SDS011;4483;48.622;9.230;2023-08-17T05:27:40;11.40;;;8.43;;
8893;SDS011;4483;48.622;9.230;2023-08-17T05:30:07;11.63;;;9.68;;
8893;SDS011;4483;48.622;9.230;2023-08-17T05:32:34;11.95;;;10.13;;
8893;SDS011;4483;48.622;9.230;2023-08-17T05:35:00;13.55;;;10.40;;
8893;SDS011;4483;48.622;9.230;2023-08-17T05:37:27;13.07;;;10.73;;
8893;SDS011;4483;48.622;9.230;2023-08-17T05:39:55;14.05;;;10.07;;
8893;SDS011;4483;48.622;9.230;2023-08-17T05:42:22;13.23;;;8.88;;
8893;SDS011;4483;48.622;9.230;2023-08-17T05:44:48;14.80;;;9.68;;
8893;SDS011;4483;48.622;9.230;2023-08-17T05:47:15;12.77;;;9.52;;
8893;SDS011;4483;48.622;9.230;2023-08-17T05:49:44;13.15;;;10.02;;
8893;SDS011;4483;48.622;9.230;2023-08-17T05:52:11;12.05;;;9.43;;
8893;SDS011;4483;48.622;9.230;2023-08-17T05:54:38;11.48;;;9.43;;
8893;SDS011;4483;48.622;9.230;2023-08-17T05:57:07;10.85;;;9.73;;
8893;SDS011;4483;48.622;9.230;2023-08-17T05:59:35;11.65;;;9.85;;
8893;SDS011;4483;48.622;9.230;2023-08-17T06:02:01;11.60;;;10.20;;
8893;SDS011;4483;48.622;9.230;2023-08-17T06:04:28;10.15;;;9.07;;
8893;SDS011;4483;48.622;9.230;2023-08-17T06:06:54;12.82;;;10.25;;
8893;SDS011;4483;48.622;9.230;2023-08-17T06:09:21;11.30;;;9.75;;
8893;SDS011;4483;48.622;9.230;2023-08-17T06:11:48;11.13;;;8.88;;
8893;SDS011;4483;48.622;9.230;2023-08-17T06:14:16;10.18;;;9.02;;
8893;SDS011;4483;48.622;9.230;2023-08-17T06:16:42;11.98;;;9.25;;
8893;SDS011;4483;48.622;9.230;2023-08-17T06:19:09;11.82;;;8.70;;
8893;SDS011;4483;48.622;9.230;2023-08-17T06:21:36;10.57;;;8.70;;
8893;SDS011;4483;48.622;9.230;2023-08-17T06:24:03;9.35;;;8.38;;
8893;SDS011;4483;48.622;9.230;2023-08-17T06:26:30;9.82;;;8.25;;
8893;SDS011;4483;48.622;9.230;2023-08-17T06:28:56;10.10;;;8.23;;
8893;SDS011;4483;48.622;9.230;2023-08-17T06:31:24;11.15;;;9.10;;
8893;SDS011;4483;48.622;9.230;2023-08-17T06:33:53;11.82;;;8.77;;
8893;SDS011;4483;48.622;9.230;2023-08-17T06:36:20;11.63;;;9.55;;
8893;SDS011;4483;48.622;9.230;2023-08-17T06:38:46;11.38;;;8.48;;
8893;SDS011;4483;48.622;9.230;2023-08-17T06:41:13;9.55;;;8.55;;
8893;SDS011;4483;48.622;9.230;2023-08-17T06:43:40;8.13;;;7.32;;
8893;SDS011;4483;48.622;9.230;2023-08-17T06:46:06;7.45;;;6.70;;
8893;SDS011;4483;48.622;9.230;2023-08-17T06:48:34;7.20;;;6.50;;
8893;SDS011;4483;48.622;9.230;2023-08-17T06:51:01;7.60;;;6.80;;
8893;SDS011;4483;48.622;9.230;2023-08-17T06:53:29;7.55;;;6.82;;
8893;SDS011;4483;48.622;9.230;2023-08-17T06:55:56;7.72;;;7.03;;
8893;SDS011;4483;48.622;9.230;2023-08-17T06:58:23;8.32;;;7.53;;
8893;SDS011;4483;48.622;9.230;2023-08-17T07:00:49;8.85;;;7.90;;
8893;SDS011;4483;48.622;9.230;2023-08-17T07:03:16;9.27;;;7.20;;
8893;SDS011;4483;48.622;9.230;2023-08-17T07:05:44;8.30;;;7.57;;
8893;SDS011;4483;48.622;9.230;2023-08-17T07:08:11;8.63;;;7.82;;
8893;SDS011;4483;48.622;9.230;2023-08-17T07:10:38;8.68;;;7.80;;
8893;SDS011;4483;48.622;9.230;2023-08-17T07:13:05;8.30;;;7.57;;
8893;SDS011;4483;48.622;9.230;2023-08-17T07:15:31;8.27;;;6.97;;
8893;SDS011;4483;48.622;9.230;2023-08-17T07:17:58;8.40;;;7.65;;
8893;SDS011;4483;48.622;9.230;2023-08-17T07:20:25;8.27;;;7.53;;
8893;SDS011;4483;48.622;9.230;2023-08-17T07:22:52;8.95;;;8.05;;
8893;SDS011;4483;48.622;9.230;2023-08-17T07:25:19;8.20;;;7.40;;
8893;SDS011;4483;48.622;9.230;2023-08-17T07:27:46;7.93;;;7.13;;
8893;SDS011;4483;48.622;9.230;2023-08-17T07:30:12;8.48;;;6.80;;
8893;SDS011;4483;48.622;9.230;2023-08-17T07:32:39;9.02;;;7.25;;
8893;SDS011;4483;48.622;9.230;2023-08-17T07:35:06;10.90;;;7.30;;
8893;SDS011;4483;48.622;9.230;2023-08-17T07:37:33;8.73;;;7.82;;
8893;SDS011;4483;48.622;9.230;2023-08-17T07:40:01;9.48;;;7.95;;
8893;SDS011;4483;48.622;9.230;2023-08-17T07:42:29;9.13;;;8.23;;
8893;SDS011;4483;48.622;9.230;2023-08-17T07:44:56;9.00;;;8.15;;
8893;SDS011;4483;48.622;9.230;2023-08-17T07:47:22;9.30;;;7.30;;
8893;SDS011;4483;48.622;9.230;2023-08-17T07:49:49;8.30;;;7.50;;
8893;SDS011;4483;48.622;9.230;2023-08-17T07:52:15;7.88;;;7.18;;
8893;SDS011;4483;48.622;9.230;2023-08-17T07:54:42;8.13;;;7.32;;
8893;SDS011;4483;48.622;9.230;2023-08-17T07:57:10;9.40;;;7.28;;
8893;SDS011;4483;48.622;9.230;2023-08-17T07:59:37;7.18;;;6.57;;
8893;SDS011;4483;48.622;9.230;2023-08-17T08:02:04;8.05;;;7.00;;
8893;SDS011;4483;48.622;9.230;2023-08-17T08:04:30;8.07;;;7.30;;
8893;SDS011;4483;48.622;9.230;2023-08-17T08:06:57;9.55;;;6.80;;
8893;SDS011;4483;48.622;9.230;2023-08-17T08:09:23;7.20;;;6.60;;
8893;SDS011;4483;48.622;9.230;2023-08-17T08:11:50;7.65;;;6.95;;
8893;SDS011;4483;48.622;9.230;2023-08-17T08:14:18;6.60;;;5.90;;
8893;SDS011;4483;48.622;9.230;2023-08-17T08:16:45;6.95;;;6.28;;
8893;SDS011;4483;48.622;9.230;2023-08-17T08:19:12;6.85;;;5.88;;
8893;SDS011;4483;48.622;9.230;2023-08-17T08:21:38;7.15;;;6.22;;
8893;SDS011;4483;48.622;9.230;2023-08-17T08:24:05;7.03;;;6.43;;
8893;SDS011;4483;48.622;9.230;2023-08-17T08:26:32;5.93;;;5.43;;
8893;SDS011;4483;48.622;9.230;2023-08-17T08:28:59;6.53;;;5.75;;
8893;SDS011;4483;48.622;9.230;2023-08-17T08:31:27;7.32;;;6.28;;
8893;SDS011;4483;48.622;9.230;2023-08-17T08:33:55;6.22;;;5.72;;
8893;SDS011;4483;48.622;9.230;2023-08-17T08:36:21;6.70;;;6.20;;
8893;SDS011;4483;48.622;9.230;2023-08-17T08:38:48;6.30;;;5.80;;
8893;SDS011;4483;48.622;9.230;2023-08-17T08:41:15;7.43;;;5.95;;
8893;SDS011;4483;48.622;9.230;2023-08-17T08:43:42;6.20;;;5.70;;
8893;SDS011;4483;48.622;9.230;2023-08-17T08:46:09;5.72;;;5.10;;
8893;SDS011;4483;48.622;9.230;2023-08-17T08:48:38;5.88;;;5.35;;
8893;SDS011;4483;48.622;9.230;2023-08-17T08:51:07;5.53;;;5.00;;
8893;SDS011;4483;48.622;9.230;2023-08-17T08:53:37;5.15;;;4.75;;
8893;SDS011;4483;48.622;9.230;2023-08-17T08:56:06;5.00;;;4.60;;
8893;SDS011;4483;48.622;9.230;2023-08-17T08:58:36;5.45;;;4.95;;
8893;SDS011;4483;48.622;9.230;2023-08-17T09:01:06;5.53;;;5.07;;
8893;SDS011;4483;48.622;9.230;2023-08-17T09:03:34;5.50;;;5.00;;
8893;SDS011;4483;48.622;9.230;2023-08-17T09:06:03;4.90;;;4.32;;
8893;SDS011;4483;48.622;9.230;2023-08-17T09:08:30;4.30;;;3.90;;
8893;SDS011;4483;48.622;9.230;2023-08-17T09:10:57;4.50;;;4.10;;
8893;SDS011;4483;48.622;9.230;2023-08-17T09:13:23;4.40;;;4.10;;
8893;SDS011;4483;48.622;9.230;2023-08-17T09:15:50;4.30;;;4.00;;
8893;SDS011;4483;48.622;9.230;2023-08-17T09:18:17;4.18;;;3.88;;
8893;SDS011;4483;48.622;9.230;2023-08-17T09:20:45;5.25;;;3.55;;
8893;SDS011;4483;48.622;9.230;2023-08-17T09:23:14;5.45;;;3.80;;
8893;SDS011;4483;48.622;9.230;2023-08-17T09:25:42;4.50;;;4.13;;
8893;SDS011;4483;48.622;9.230;2023-08-17T09:28:10;5.63;;;3.60;;
8893;SDS011;4483;48.622;9.230;2023-08-17T09:30:49;5.55;;;4.43;;
8893;SDS011;4483;48.622;9.230;2023-08-17T09:33:17;3.70;;;3.40;;
8893;SDS011;4483;48.622;9.230;2023-08-17T09:35:44;3.83;;;3.63;;
8893;SDS011;4483;48.622;9.230;2023-08-17T09:38:11;4.00;;;3.70;;
8893;SDS011;4483;48.622;9.230;2023-08-17T09:40:39;3.70;;;3.40;;
8893;SDS011;4483;48.622;9.230;2023-08-17T09:43:06;3.88;;;3.33;;
8893;SDS011;4483;48.622;9.230;2023-08-17T09:45:32;3.63;;;3.42;;
8893;SDS011;4483;48.622;9.230;2023-08-17T09:47:59;5.00;;;3.42;;
8893;SDS011;4483;48.622;9.230;2023-08-17T09:50:26;4.15;;;3.85;;
8893;SDS011;4483;48.622;9.230;2023-08-17T09:52:53;3.78;;;3.47;;
8893;SDS011;4483;48.622;9.230;2023-08-17T09:55:20;4.65;;;3.70;;
8893;SDS011;4483;48.622;9.230;2023-08-17T09:57:50;3.70;;;3.50;;
8893;SDS011;4483;48.622;9.230;2023-08-17T10:00:18;4.00;;;3.70;;
8893;SDS011;4483;48.622;9.230;2023-08-17T10:02:45;4.13;;;3.58;;
8893;SDS011;4483;48.622;9.230;2023-08-17T10:05:17;4.60;;;3.60;;
8893;SDS011;4483;48.622;9.230;2023-08-17T10:07:46;3.92;;;3.63;;
8893;SDS011;4483;48.622;9.230;2023-08-17T10:10:15;5.13;;;3.42;;
8893;SDS011;4483;48.622;9.230;2023-08-17T10:12:48;3.70;;;3.50;;
8893;SDS011;4483;48.622;9.230;2023-08-17T10:15:21;3.80;;;3.47;;
8893;SDS011;4483;48.622;9.230;2023-08-17T10:17:53;4.10;;;3.78;;
8893;SDS011;4483;48.622;9.230;2023-08-17T10:20:25;3.70;;;3.50;;
8893;SDS011;4483;48.622;9.230;2023-08-17T10:22:56;4.10;;;3.80;;
8893;SDS011;4483;48.622;9.230;2023-08-17T10:25:29;3.80;;;3.55;;
8893;SDS011;4483;48.622;9.230;2023-08-17T10:27:57;4.00;;;3.80;;
8893;SDS011;4483;48.622;9.230;2023-08-17T10:30:25;3.78;;;3.35;;
8893;SDS011;4483;48.622;9.230;2023-08-17T10:32:52;3.65;;;3.35;;
8893;SDS011;4483;48.622;9.230;2023-08-17T10:35:18;3.97;;;3.67;;
8893;SDS011;4483;48.622;9.230;2023-08-17T10:37:45;3.72;;;3.42;;
8893;SDS011;4483;48.622;9.230;2023-08-17T10:40:13;4.13;;;3.83;;
8893;SDS011;4483;48.622;9.230;2023-08-17T10:42:39;4.20;;;3.90;;
8893;SDS011;4483;48.622;9.230;2023-08-17T10:45:27;4.00;;;3.70;;
8893;SDS011;4483;48.622;9.230;2023-08-17T10:51:03;3.75;;;3.45;;
8893;SDS011;4483;48.622;9.230;2023-08-17T10:53:35;3.70;;;3.50;;
8893;SDS011;4483;48.622;9.230;2023-08-17T10:56:06;3.72;;;3.42;;
8893;SDS011;4483;48.622;9.230;2023-08-17T10:58:34;3.50;;;3.10;;
8893;SDS011;4483;48.622;9.230;2023-08-17T11:01:02;3.50;;;3.30;;
8893;SDS011;4483;48.622;9.230;2023-08-17T11:03:29;4.82;;;3.80;;
8893;SDS011;4483;48.622;9.230;2023-08-17T11:05:56;3.72;;;2.97;;
8893;SDS011;4483;48.622;9.230;2023-08-17T11:08:23;3.78;;;3.50;;
8893;SDS011;4483;48.622;9.230;2023-08-17T11:10:56;3.88;;;3.47;;
8893;SDS011;4483;48.622;9.230;2023-08-17T11:13:26;3.60;;;3.35;;
8893;SDS011;4483;48.622;9.230;2023-08-17T11:15:54;3.72;;;3.22;;
8893;SDS011;4483;48.622;9.230;2023-08-17T11:18:22;3.50;;;3.10;;
8893;SDS011;4483;48.622;9.230;2023-08-17T11:20:50;3.80;;;3.20;;
8893;SDS011;4483;48.622;9.230;2023-08-17T11:23:17;3.30;;;2.92;;
8893;SDS011;4483;48.622;9.230;2023-08-17T11:25:44;3.45;;;3.08;;
8893;SDS011;4483;48.622;9.230;2023-08-17T11:28:11;4.35;;;3.40;;
8893;SDS011;4483;48.622;9.230;2023-08-17T11:30:39;3.33;;;2.78;;
8893;SDS011;4483;48.622;9.230;2023-08-17T11:33:07;2.97;;;2.78;;
8893;SDS011;4483;48.622;9.230;2023-08-17T11:35:37;4.88;;;2.90;;
8893;SDS011;4483;48.622;9.230;2023-08-17T11:38:04;3.47;;;2.90;;
8893;SDS011;4483;48.622;9.230;2023-08-17T11:40:31;3.13;;;2.88;;
8893;SDS011;4483;48.622;9.230;2023-08-17T11:42:58;4.28;;;3.00;;
8893;SDS011;4483;48.622;9.230;2023-08-17T11:45:26;3.20;;;3.00;;
8893;SDS011;4483;48.622;9.230;2023-08-17T11:47:53;3.50;;;3.22;;
8893;SDS011;4483;48.622;9.230;2023-08-17T11:50:20;3.65;;;3.15;;
8893;SDS011;4483;48.622;9.230;2023-08-17T11:52:48;3.05;;;2.83;;
8893;SDS011;4483;48.622;9.230;2023-08-17T11:55:15;3.05;;;2.90;;
8893;SDS011;4483;48.622;9.230;2023-08-17T11:57:44;5.32;;;2.88;;
8893;SDS011;4483;48.622;9.230;2023-08-17T12:00:16;3.42;;;3.13;;
8893;SDS011;4483;48.622;9.230;2023-08-17T12:02:46;3.35;;;3.15;;
8893;SDS011;4483;48.622;9.230;2023-08-17T12:05:13;3.40;;;3.10;;
8893;SDS011;4483;48.622;9.230;2023-08-17T12:07:39;3.30;;;3.20;;
8893;SDS011;4483;48.622;9.230;2023-08-17T12:10:08;3.55;;;3.25;;
8893;SDS011;4483;48.622;9.230;2023-08-17T12:12:36;3.47;;;3.20;;
8893;SDS011;4483;48.622;9.230;2023-08-17T12:15:05;3.83;;;3.42;;
8893;SDS011;4483;48.622;9.230;2023-08-17T12:17:32;3.55;;;3.17;;
8893;SDS011;4483;48.622;9.230;2023-08-17T12:19:59;3.88;;;3.40;;
8893;SDS011;4483;48.622;9.230;2023-08-17T12:22:26;3.33;;;3.08;;
8893;SDS011;4483;48.622;9.230;2023-08-17T12:24:53;3.53;;;3.30;;
8893;SDS011;4483;48.622;9.230;2023-08-17T12:27:22;4.32;;;3.13;;
8893;SDS011;4483;48.622;9.230;2023-08-17T12:29:50;3.60;;;3.40;;
8893;SDS011;4483;48.622;9.230;2023-08-17T12:32:18;4.03;;;3.72;;
8893;SDS011;4483;48.622;9.230;2023-08-17T12:34:46;3.58;;;3.28;;
8893;SDS011;4483;48.622;9.230;2023-08-17T12:37:17;3.78;;;3.58;;
8893;SDS011;4483;48.622;9.230;2023-08-17T12:39:45;3.58;;;3.22;;
8893;SDS011;4483;48.622;9.230;2023-08-17T12:42:12;3.20;;;3.00;;
8893;SDS011;4483;48.622;9.230;2023-08-17T12:44:40;4.78;;;3.60;;
8893;SDS011;4483;48.622;9.230;2023-08-17T12:47:07;3.67;;;3.38;;
8893;SDS011;4483;48.622;9.230;2023-08-17T12:49:35;4.07;;;3.33;;
8893;SDS011;4483;48.622;9.230;2023-08-17T12:52:02;4.50;;;3.40;;
8893;SDS011;4483;48.622;9.230;2023-08-17T12:54:29;3.63;;;3.33;;
8893;SDS011;4483;48.622;9.230;2023-08-17T12:56:55;4.32;;;3.63;;
8893;SDS011;4483;48.622;9.230;2023-08-17T12:59:22;7.65;;;3.65;;
8893;SDS011;4483;48.622;9.230;2023-08-17T13:01:50;4.00;;;3.70;;
8893;SDS011;4483;48.622;9.230;2023-08-17T13:04:16;4.72;;;4.30;;
8893;SDS011;4483;48.622;9.230;2023-08-17T13:06:43;4.22;;;3.70;;
8893;SDS011;4483;48.622;9.230;2023-08-17T13:09:10;4.22;;;3.80;;
8893;SDS011;4483;48.622;9.230;2023-08-17T13:11:36;3.97;;;3.65;;
8893;SDS011;4483;48.622;9.230;2023-08-17T13:14:03;4.07;;;3.70;;
8893;SDS011;4483;48.622;9.230;2023-08-17T13:16:29;3.88;;;3.58;;
8893;SDS011;4483;48.622;9.230;2023-08-17T13:18:57;4.00;;;3.70;;
8893;SDS011;4483;48.622;9.230;2023-08-17T13:21:24;4.28;;;3.63;;
8893;SDS011;4483;48.622;9.230;2023-08-17T13:23:50;5.18;;;3.95;;
8893;SDS011;4483;48.622;9.230;2023-08-17T13:26:17;4.65;;;3.78;;
8893;SDS011;4483;48.622;9.230;2023-08-17T13:28:44;4.18;;;3.92;;
8893;SDS011;4483;48.622;9.230;2023-08-17T13:31:10;5.00;;;3.95;;
8893;SDS011;4483;48.622;9.230;2023-08-17T13:33:37;5.25;;;3.85;;
8893;SDS011;4483;48.622;9.230;2023-08-17T13:36:05;3.90;;;3.60;;
8893;SDS011;4483;48.622;9.230;2023-08-17T13:38:32;4.47;;;3.85;;
8893;SDS011;4483;48.622;9.230;2023-08-17T13:40:58;4.20;;;3.90;;
8893;SDS011;4483;48.622;9.230;2023-08-17T13:43:25;4.30;;;4.00;;
8893;SDS011;4483;48.622;9.230;2023-08-17T13:45:52;4.05;;;3.75;;
8893;SDS011;4483;48.622;9.230;2023-08-17T13:48:18;9.50;;;4.05;;
8893;SDS011;4483;48.622;9.230;2023-08-17T13:50:45;4.00;;;3.60;;
8893;SDS011;4483;48.622;9.230;2023-08-17T13:53:13;4.85;;;3.80;;
8893;SDS011;4483;48.622;9.230;2023-08-17T13:55:39;6.30;;;3.92;;
8893;SDS011;4483;48.622;9.230;2023-08-17T13:58:06;6.63;;;4.05;;
8893;SDS011;4483;48.622;9.230;2023-08-17T14:00:35;4.25;;;3.72;;
8893;SDS011;4483;48.622;9.230;2023-08-17T14:03:01;4.18;;;3.88;;
8893;SDS011;4483;48.622;9.230;2023-08-17T14:05:28;3.92;;;3.60;;
8893;SDS011;4483;48.622;9.230;2023-08-17T14:07:55;4.43;;;3.90;;
8893;SDS011;4483;48.622;9.230;2023-08-17T14:10:23;4.68;;;4.28;;
8893;SDS011;4483;48.622;9.230;2023-08-17T14:12:50;3.80;;;3.58;;
8893;SDS011;4483;48.622;9.230;2023-08-17T14:15:16;4.35;;;4.03;;
8893;SDS011;4483;48.622;9.230;2023-08-17T14:17:43;4.68;;;4.25;;
8893;SDS011;4483;48.622;9.230;2023-08-17T14:20:10;4.38;;;4.00;;
8893;SDS011;4483;48.622;9.230;2023-08-17T14:22:37;6.28;;;3.90;;
8893;SDS011;4483;48.622;9.230;2023-08-17T14:25:04;5.80;;;4.13;;
8893;SDS011;4483;48.622;9.230;2023-08-17T14:27:33;4.18;;;3.88;;
8893;SDS011;4483;48.622;9.230;2023-08-17T14:29:59;4.28;;;4.00;;
8893;SDS011;4483;48.622;9.230;2023-08-17T14:32:27;4.55;;;4.25;;
8893;SDS011;4483;48.622;9.230;2023-08-17T14:34:54;5.30;;;4.20;;
8893;SDS011;4483;48.622;9.230;2023-08-17T14:37:20;4.03;;;3.83;;
8893;SDS011;4483;48.622;9.230;2023-08-17T14:39:47;5.88;;;4.70;;
8893;SDS011;4483;48.622;9.230;2023-08-17T14:42:13;8.30;;;4.95;;
8893;SDS011;4483;48.622;9.230;2023-08-17T14:44:41;8.15;;;4.28;;
8893;SDS011;4483;48.622;9.230;2023-08-17T14:47:08;4.80;;;4.38;;
8893;SDS011;4483;48.622;9.230;2023-08-17T14:49:35;5.07;;;4.68;;
8893;SDS011;4483;48.622;9.230;2023-08-17T14:52:01;4.93;;;4.53;;
8893;SDS011;4483;48.622;9.230;2023-08-17T14:54:28;6.65;;;4.90;;
8893;SDS011;4483;48.622;9.230;2023-08-17T14:56:54;6.85;;;4.43;;
8893;SDS011;4483;48.622;9.230;2023-08-17T14:59:21;10.02;;;4.35;;
8893;SDS011;4483;48.622;9.230;2023-08-17T15:01:49;9.23;;;4.72;;
8893;SDS011;4483;48.622;9.230;2023-08-17T15:04:17;5.90;;;5.35;;
8893;SDS011;4483;48.622;9.230;2023-08-17T15:06:44;6.13;;;5.38;;
8893;SDS011;4483;48.622;9.230;2023-08-17T15:09:10;7.70;;;5.57;;
8893;SDS011;4483;48.622;9.230;2023-08-17T15:11:37;6.72;;;5.07;;
8893;SDS011;4483;48.622;9.230;2023-08-17T15:14:04;5.85;;;5.25;;
8893;SDS011;4483;48.622;9.230;2023-08-17T15:16:30;5.35;;;4.85;;